Harrisburg International Airport
KMDT : now visible

Airfield :











YOU CAN JOIN US ON...

 
LOGIN :

Register | Disclaimer

   EN    FR    IT 

 









Legend :    VFR   Marginal VFR   IFR   Intensive IFR   Very Intensive IFR
Visi :
Ceiling :
>= 8 km
>= 3000ft
5 to 8 km
1000 to 3000 ft
1500m to 5 km
500 to 1000 ft
800 to 1500m
200 to 500 ft
< 800m
< 200 ft
Symbols :   Thunderstorms  Fog  Heavy snow  Heavy precipitations  Wind > 20 kt






- Airport Elevation : 310 ft
- IATA code : MDT


KMDT - Harrisburg International

CURRENT METAR :
  • 240456Z 00000KT 5SM BR SCT180 OVC250 M03/M06 A3034 RMK AO2 SLP277 T10281056 400501072

EXPIRED METARs :
  • 240356Z 00000KT 7SM OVC190 M01/M04 A3034 RMK AO2 SLP278 T10111044
  • 240256Z 00000KT 7SM BKN180 OVC250 01/M02 A3034 RMK AO2 SLPNO T00061022 58001
  • 240156Z 00000KT 7SM OVC180 01/M04 A3035 RMK AO2 SLP280 T00061044

TAF KMDT
Valid from the 24 at 04:00 until the 25 at 00:00 UTC


240355Z 2404/2424 00000KT P6SM OVC150
FM241200 09004KT P6SM SCT025
FM242000 10007KT P6SM OVC040



MET'MAP, your aeronautical weather chart ! - Copyright ORBIFLY December 2007 - Disclaimer

ORBIFLY MET'MAP TEAM :

Programming & Development : Alexandra Zaïnal
Concept & original design : Baudouin d'Aumeries
Assistance for programming : Marc-Olivier Méhu
Technical & hardware support : Manuel Goepfert

Contact : metmap@orbifly.com




SOURCES & CREDITS :

   NOAA       Earth
Advisory